createdAt,value
2022-09-30T00:01:25.643Z,41.47
2022-09-30T00:04:16.151Z,41.39
2022-09-30T00:07:06.020Z,41.23
2022-09-30T00:09:54.485Z,41.52
2022-09-30T00:12:44.297Z,41.51
2022-09-30T00:15:33.155Z,41.68
2022-09-30T00:18:21.532Z,41.71
2022-09-30T00:21:10.353Z,41.43
2022-09-30T00:23:58.883Z,41.36
2022-09-30T00:26:47.396Z,41.70
2022-09-30T00:29:37.236Z,41.70
2022-09-30T00:32:27.065Z,41.70
2022-09-30T00:35:20.468Z,41.65
2022-09-30T00:38:10.897Z,41.89
2022-09-30T00:41:00.041Z,41.67
2022-09-30T00:43:53.572Z,41.80
2022-09-30T00:46:45.136Z,41.57
2022-09-30T00:49:33.737Z,41.55
2022-09-30T00:52:22.247Z,41.50
2022-09-30T00:55:21.822Z,41.52
2022-09-30T00:58:11.673Z,41.44
2022-09-30T01:01:02.766Z,41.68
2022-09-30T01:03:55.161Z,41.34
2022-09-30T01:06:44.331Z,41.59
2022-09-30T01:09:33.608Z,41.83
2022-09-30T01:12:25.909Z,41.55
2022-09-30T01:15:14.597Z,41.55
2022-09-30T01:18:06.777Z,41.52
2022-09-30T01:21:10.657Z,41.68
2022-09-30T01:24:31.607Z,41.60
2022-09-30T01:27:49.406Z,41.73
2022-09-30T01:30:57.187Z,41.61
2022-09-30T01:33:50.635Z,41.56
2022-09-30T01:36:50.282Z,41.75
2022-09-30T01:39:46.399Z,41.54
2022-09-30T01:42:40.443Z,41.44
2022-09-30T01:45:34.141Z,41.59
2022-09-30T01:48:27.072Z,41.51
2022-09-30T01:51:19.665Z,41.42
2022-09-30T01:54:12.786Z,41.48
2022-09-30T01:57:05.307Z,41.86
2022-09-30T01:59:58.744Z,41.58
2022-09-30T02:02:50.287Z,41.78
2022-09-30T02:05:45.347Z,41.36
2022-09-30T02:08:39.232Z,41.70
2022-09-30T02:11:29.851Z,41.47
2022-09-30T02:14:24.268Z,41.51
2022-09-30T02:17:16.436Z,41.65
2022-09-30T02:20:08.114Z,41.78
2022-09-30T02:23:03.958Z,41.65
2022-09-30T02:25:57.178Z,41.63
2022-09-30T02:28:49.193Z,41.52
2022-09-30T02:31:41.736Z,41.53
2022-09-30T02:34:33.802Z,41.58
2022-09-30T02:37:25.654Z,41.60
2022-09-30T02:40:18.303Z,41.80
2022-09-30T02:43:07.153Z,41.91
2022-09-30T02:46:04.255Z,41.62
2022-09-30T02:48:59.019Z,41.55
2022-09-30T02:51:59.479Z,41.82
2022-09-30T02:54:53.346Z,41.68
2022-09-30T02:57:50.213Z,41.87
2022-09-30T03:00:38.799Z,41.64
2022-09-30T03:03:30.297Z,41.98
2022-09-30T03:06:19.640Z,41.64
2022-09-30T03:09:11.949Z,41.71
2022-09-30T03:12:08.400Z,41.63
2022-09-30T03:15:20.541Z,41.65
2022-09-30T03:18:18.911Z,41.83
2022-09-30T03:21:18.435Z,41.76
2022-09-30T03:24:29.717Z,41.96
2022-09-30T03:27:27.106Z,41.60
2022-09-30T03:30:20.066Z,41.69
2022-09-30T03:33:15.645Z,42.00
2022-09-30T03:36:10.649Z,41.89
2022-09-30T03:39:03.332Z,41.96
2022-09-30T03:41:56.570Z,41.85
2022-09-30T03:44:49.288Z,41.95
2022-09-30T03:47:42.542Z,41.95
2022-09-30T03:50:33.695Z,42.02
2022-09-30T03:53:22.284Z,41.67
2022-09-30T03:56:10.839Z,41.75
2022-09-30T03:58:59.453Z,41.69
2022-09-30T04:01:48.000Z,41.72
2022-09-30T04:04:36.588Z,41.89
2022-09-30T04:07:26.635Z,42.10
2022-09-30T04:10:15.049Z,41.86
2022-09-30T04:13:03.854Z,41.87
2022-09-30T04:15:56.408Z,41.76
2022-09-30T04:18:44.943Z,41.71
2022-09-30T04:21:33.361Z,41.86
2022-09-30T04:24:23.988Z,41.91
2022-09-30T04:27:12.497Z,41.64
2022-09-30T04:30:00.909Z,41.92
2022-09-30T04:32:50.118Z,42.19
2022-09-30T04:35:39.203Z,41.99
2022-09-30T04:38:28.290Z,42.42
2022-09-30T04:41:19.194Z,42.43
2022-09-30T04:44:07.625Z,42.57
2022-09-30T04:46:56.141Z,42.07
2022-09-30T04:49:44.601Z,42.00
2022-09-30T04:52:33.130Z,42.48
2022-09-30T04:55:21.629Z,42.47
2022-09-30T04:58:11.661Z,42.25
2022-09-30T05:01:06.946Z,42.48
2022-09-30T05:03:55.711Z,42.45
2022-09-30T05:06:44.229Z,42.69
2022-09-30T05:09:32.766Z,42.46
2022-09-30T05:12:21.262Z,42.66
2022-09-30T05:15:11.851Z,42.29
2022-09-30T05:18:00.338Z,42.76
2022-09-30T05:20:52.388Z,42.49
2022-09-30T05:23:40.861Z,42.50
2022-09-30T05:26:29.343Z,42.23
2022-09-30T05:29:17.846Z,42.32
2022-09-30T05:32:07.811Z,42.29
2022-09-30T05:34:56.443Z,42.51
2022-09-30T05:37:44.837Z,42.37
2022-09-30T05:40:33.863Z,42.76
2022-09-30T05:43:23.863Z,42.43
2022-09-30T05:46:12.875Z,42.55
2022-09-30T05:49:02.723Z,42.70
2022-09-30T05:51:53.273Z,42.39
2022-09-30T05:54:42.453Z,42.77
2022-09-30T05:57:30.987Z,42.58
2022-09-30T06:00:20.436Z,42.38
2022-09-30T06:03:11.737Z,42.77
2022-09-30T06:06:01.808Z,42.33
2022-09-30T06:08:50.615Z,42.64
2022-09-30T06:11:39.070Z,42.60
2022-09-30T06:14:28.854Z,42.48
2022-09-30T06:17:19.239Z,42.40
2022-09-30T06:20:08.626Z,42.79
2022-09-30T06:23:00.668Z,42.40
2022-09-30T06:25:51.993Z,42.53
2022-09-30T06:28:40.720Z,42.46
2022-09-30T06:31:30.979Z,42.58
2022-09-30T06:34:19.512Z,42.66
2022-09-30T06:37:07.982Z,42.32
2022-09-30T06:39:57.776Z,42.57
2022-09-30T06:42:46.233Z,42.35
2022-09-30T06:45:35.678Z,42.44
2022-09-30T06:48:34.549Z,42.49
2022-09-30T06:51:27.128Z,42.89
2022-09-30T06:54:15.608Z,42.46
2022-09-30T06:57:05.463Z,42.55
2022-09-30T06:59:54.442Z,42.72
2022-09-30T07:02:42.884Z,42.54
2022-09-30T07:05:31.394Z,42.86
2022-09-30T07:08:19.951Z,42.72
2022-09-30T07:11:12.728Z,42.77
2022-09-30T07:14:04.250Z,42.52
2022-09-30T07:16:53.718Z,42.72
2022-09-30T07:19:42.297Z,42.57
2022-09-30T07:22:31.976Z,42.55
2022-09-30T07:25:20.571Z,42.87
2022-09-30T07:28:09.123Z,42.54
2022-09-30T07:31:20.020Z,42.68
2022-09-30T07:34:10.078Z,42.56
2022-09-30T07:36:58.709Z,42.44
2022-09-30T07:39:49.032Z,42.37
2022-09-30T07:42:39.454Z,42.43
2022-09-30T07:45:27.955Z,42.78
2022-09-30T07:48:50.073Z,42.49
2022-09-30T07:51:40.218Z,42.67
2022-09-30T07:54:30.736Z,42.69
2022-09-30T07:57:19.530Z,42.68
2022-09-30T08:00:37.440Z,42.41
2022-09-30T08:03:19.272Z,42.53
2022-09-30T08:06:09.283Z,42.70
2022-09-30T08:08:59.132Z,42.29
2022-09-30T08:11:48.025Z,42.45
2022-09-30T08:14:36.509Z,42.64
2022-09-30T08:17:25.036Z,42.54
2022-09-30T08:20:18.799Z,42.40
2022-09-30T08:23:09.914Z,42.32
2022-09-30T08:26:02.869Z,42.59
2022-09-30T08:28:51.339Z,42.64
2022-09-30T08:31:39.882Z,42.46
2022-09-30T08:34:33.856Z,42.39
2022-09-30T08:37:28.012Z,42.64
2022-09-30T08:40:21.414Z,42.71
2022-09-30T08:43:19.258Z,42.46
2022-09-30T08:46:11.001Z,42.52
2022-09-30T08:49:06.851Z,42.36
2022-09-30T08:51:55.637Z,42.38
2022-09-30T08:54:49.280Z,42.45
2022-09-30T08:57:45.072Z,42.38
2022-09-30T09:00:36.298Z,42.63
2022-09-30T09:03:28.184Z,42.54
2022-09-30T09:06:22.559Z,42.45
2022-09-30T09:09:23.716Z,42.20
2022-09-30T09:12:23.941Z,42.35
2022-09-30T09:15:20.959Z,42.53
2022-09-30T09:18:24.065Z,42.49
2022-09-30T09:21:23.704Z,42.59
2022-09-30T09:24:16.945Z,42.39
2022-09-30T09:27:19.007Z,42.43
2022-09-30T09:30:10.550Z,42.40
2022-09-30T09:33:02.775Z,42.62
2022-09-30T09:35:54.997Z,42.26
2022-09-30T09:38:58.515Z,42.21
2022-09-30T09:41:54.548Z,42.44
2022-09-30T09:44:49.398Z,42.46
2022-09-30T09:47:37.873Z,42.10
2022-09-30T09:50:35.209Z,42.14
2022-09-30T09:53:36.070Z,42.34
2022-09-30T09:56:32.263Z,42.12
2022-09-30T09:59:21.428Z,42.41
2022-09-30T10:02:26.909Z,42.18
2022-09-30T10:05:27.082Z,42.18
2022-09-30T10:08:18.643Z,42.44
2022-09-30T10:11:08.565Z,42.33
2022-09-30T10:13:59.093Z,42.35
2022-09-30T10:16:47.941Z,42.21
2022-09-30T10:19:37.809Z,42.21
2022-09-30T10:22:28.717Z,42.35
2022-09-30T10:25:24.333Z,42.27
2022-09-30T10:28:22.397Z,42.10
2022-09-30T10:31:14.559Z,42.49
2022-09-30T10:34:10.792Z,42.22
2022-09-30T10:37:03.538Z,42.30
2022-09-30T10:39:57.862Z,42.45
2022-09-30T10:42:48.514Z,42.41
2022-09-30T10:45:41.261Z,42.20
2022-09-30T10:48:32.709Z,42.57
2022-09-30T10:51:26.131Z,42.31
2022-09-30T10:54:37.150Z,42.12
2022-09-30T10:57:28.796Z,42.18
2022-09-30T11:00:21.868Z,42.68
2022-09-30T11:03:15.919Z,42.59
2022-09-30T11:06:05.270Z,42.29
2022-09-30T11:08:58.722Z,42.40
2022-09-30T11:11:52.881Z,42.43
2022-09-30T11:14:46.265Z,42.53
2022-09-30T11:17:40.422Z,42.42
2022-09-30T11:20:32.678Z,42.43
2022-09-30T11:23:25.853Z,42.47
2022-09-30T11:26:21.881Z,42.59
2022-09-30T11:29:24.679Z,42.46
2022-09-30T11:32:21.213Z,42.31
2022-09-30T11:35:22.431Z,42.39
2022-09-30T11:38:16.670Z,42.44
2022-09-30T11:41:09.860Z,42.29
2022-09-30T11:44:06.698Z,42.43
2022-09-30T11:47:04.930Z,42.46
2022-09-30T11:50:10.073Z,42.54
2022-09-30T11:53:09.900Z,42.41
2022-09-30T11:56:12.454Z,42.65
2022-09-30T11:59:02.443Z,42.49
2022-09-30T12:01:52.836Z,42.49
2022-09-30T12:04:44.587Z,42.47
2022-09-30T12:07:41.135Z,42.63
2022-09-30T12:10:35.408Z,42.63
2022-09-30T12:13:25.608Z,42.49
2022-09-30T12:16:19.578Z,42.32
2022-09-30T12:19:19.631Z,42.22
2022-09-30T12:22:16.661Z,42.30
2022-09-30T12:25:15.361Z,42.31
2022-09-30T12:28:28.062Z,42.30
2022-09-30T12:31:41.430Z,42.38
2022-09-30T12:34:46.001Z,42.44
2022-09-30T12:37:44.279Z,42.52
2022-09-30T12:40:52.237Z,42.56
2022-09-30T12:44:06.355Z,42.45
2022-09-30T12:47:06.223Z,42.03
2022-09-30T12:49:57.605Z,42.38
2022-09-30T12:52:48.217Z,42.07
2022-09-30T12:55:40.801Z,42.01
2022-09-30T12:58:34.566Z,42.25
2022-09-30T13:01:24.991Z,42.54
2022-09-30T13:04:35.636Z,42.17
2022-09-30T13:07:24.397Z,42.24
2022-09-30T13:10:31.183Z,42.04
2022-09-30T13:13:25.032Z,42.35
2022-09-30T13:16:14.040Z,41.88
2022-09-30T13:19:03.692Z,41.93
2022-09-30T13:21:57.833Z,41.93
2022-09-30T13:25:13.622Z,42.01
2022-09-30T13:28:32.284Z,41.77
2022-09-30T13:31:21.658Z,41.59
2022-09-30T13:34:12.401Z,41.50
2022-09-30T13:37:02.596Z,41.44
2022-09-30T13:39:55.687Z,41.11
2022-09-30T13:42:49.756Z,40.65
2022-09-30T13:45:40.322Z,40.38
2022-09-30T13:48:32.284Z,40.55
2022-09-30T13:51:22.922Z,40.78
2022-09-30T13:54:20.653Z,41.02
2022-09-30T13:57:17.746Z,40.50
2022-09-30T14:00:09.276Z,40.04
2022-09-30T14:03:08.749Z,40.50
2022-09-30T14:06:04.386Z,40.41
2022-09-30T14:09:20.202Z,40.33
2022-09-30T14:12:25.239Z,40.55
2022-09-30T14:15:28.803Z,40.15
2022-09-30T14:18:46.456Z,40.15
2022-09-30T14:21:40.942Z,40.39
2022-09-30T14:24:36.521Z,40.20
2022-09-30T14:27:39.577Z,39.43
2022-09-30T14:30:28.979Z,38.98
2022-09-30T14:33:22.649Z,38.63
2022-09-30T14:36:15.573Z,39.29
2022-09-30T14:39:05.930Z,39.40
2022-09-30T14:41:57.712Z,39.98
2022-09-30T14:44:49.278Z,39.94
2022-09-30T14:47:40.498Z,40.16
2022-09-30T14:50:32.156Z,40.24
2022-09-30T14:53:29.910Z,39.96
2022-09-30T14:56:21.870Z,40.29
2022-09-30T14:59:18.722Z,40.26
2022-09-30T15:02:16.926Z,40.38
2022-09-30T15:05:06.374Z,40.48
2022-09-30T15:07:55.841Z,40.18
2022-09-30T15:10:50.168Z,40.35
2022-09-30T15:13:40.543Z,40.38
2022-09-30T15:16:31.402Z,40.42
2022-09-30T15:19:22.632Z,40.26
2022-09-30T15:22:12.439Z,40.39
2022-09-30T15:25:01.515Z,40.39
2022-09-30T15:27:51.738Z,40.25
2022-09-30T15:30:42.601Z,40.33
2022-09-30T15:33:32.488Z,40.11
2022-09-30T15:36:21.202Z,40.27
2022-09-30T15:39:20.385Z,40.35
2022-09-30T15:42:09.398Z,40.54
2022-09-30T15:45:01.436Z,40.34
2022-09-30T15:47:56.635Z,40.42
2022-09-30T15:50:48.078Z,40.34
2022-09-30T15:53:48.253Z,40.54
2022-09-30T15:56:37.819Z,40.36
2022-09-30T16:00:00.734Z,40.26
2022-09-30T16:02:49.235Z,40.18
2022-09-30T16:05:38.056Z,40.24
2022-09-30T16:08:28.901Z,40.48
2022-09-30T16:11:21.792Z,40.37
2022-09-30T16:14:18.435Z,40.28
2022-09-30T16:17:09.064Z,40.33
2022-09-30T16:19:59.292Z,40.52
2022-09-30T16:22:53.456Z,40.39
2022-09-30T16:25:42.211Z,40.20
2022-09-30T16:28:31.729Z,40.31
2022-09-30T16:31:20.321Z,40.31
2022-09-30T16:34:12.706Z,40.14
2022-09-30T16:37:07.508Z,40.22
2022-09-30T16:39:57.822Z,40.59
2022-09-30T16:42:46.346Z,40.22
2022-09-30T16:45:35.889Z,40.11
2022-09-30T16:48:25.391Z,40.08
2022-09-30T16:51:17.557Z,40.21
2022-09-30T16:54:06.081Z,40.40
2022-09-30T16:56:58.880Z,40.31
2022-09-30T16:59:49.264Z,40.15
2022-09-30T17:02:37.786Z,40.14
2022-09-30T17:05:27.707Z,40.10
2022-09-30T17:08:18.602Z,40.38
2022-09-30T17:11:07.163Z,40.37
2022-09-30T17:13:58.288Z,40.17
2022-09-30T17:16:47.640Z,40.15
2022-09-30T17:19:36.324Z,40.35
2022-09-30T17:22:24.821Z,40.24
2022-09-30T17:25:15.173Z,40.24
2022-09-30T17:28:03.737Z,40.28
2022-09-30T17:30:52.258Z,40.52
2022-09-30T17:33:42.304Z,40.48
2022-09-30T17:36:31.196Z,40.72
2022-09-30T17:39:20.009Z,39.38
2022-09-30T17:42:30.903Z,38.79
2022-09-30T17:45:19.459Z,38.27
2022-09-30T17:48:09.460Z,37.99
2022-09-30T17:50:58.152Z,37.80
2022-09-30T17:53:47.039Z,37.48
2022-09-30T17:56:36.618Z,37.93
2022-09-30T17:59:27.267Z,37.80
2022-09-30T18:02:17.592Z,38.29
2022-09-30T18:05:06.852Z,38.99
2022-09-30T18:08:06.510Z,39.30
2022-09-30T18:10:55.485Z,39.62
2022-09-30T18:13:44.047Z,39.63
2022-09-30T18:16:34.584Z,39.72
2022-09-30T18:19:23.157Z,39.98
2022-09-30T18:22:11.635Z,40.06
2022-09-30T18:25:29.362Z,40.42
2022-09-30T18:28:18.601Z,40.18
2022-09-30T18:31:08.039Z,40.37
2022-09-30T18:33:58.056Z,40.50
2022-09-30T18:36:51.119Z,40.41
2022-09-30T18:39:39.965Z,40.85
2022-09-30T18:42:30.110Z,40.66
2022-09-30T18:45:26.595Z,40.92
2022-09-30T18:48:15.613Z,40.75
2022-09-30T18:51:06.263Z,40.73
2022-09-30T18:53:57.691Z,40.91
2022-09-30T18:56:46.369Z,41.04
2022-09-30T18:59:34.779Z,41.29
2022-09-30T19:02:23.358Z,40.92
2022-09-30T19:05:12.883Z,41.13
2022-09-30T19:08:03.170Z,41.19
2022-09-30T19:10:52.038Z,41.22
2022-09-30T19:13:40.880Z,41.38
2022-09-30T19:16:35.268Z,41.23
2022-09-30T19:19:26.449Z,41.13
2022-09-30T19:22:15.082Z,41.17
2022-09-30T19:25:05.647Z,41.32
2022-09-30T19:27:55.699Z,41.12
2022-09-30T19:30:45.214Z,41.40
2022-09-30T19:33:36.773Z,41.22
2022-09-30T19:36:39.547Z,41.38
2022-09-30T19:39:43.927Z,41.43
2022-09-30T19:42:37.780Z,41.38
2022-09-30T19:45:27.240Z,41.53
2022-09-30T19:48:15.882Z,41.35
2022-09-30T19:51:06.952Z,41.85
2022-09-30T19:54:04.430Z,41.69
2022-09-30T19:56:55.385Z,41.54
2022-09-30T19:59:45.234Z,41.47
2022-09-30T20:02:33.844Z,41.88
2022-09-30T20:05:23.630Z,41.70
2022-09-30T20:08:15.138Z,41.76
2022-09-30T20:11:05.015Z,41.89
2022-09-30T20:14:14.976Z,41.93
2022-09-30T20:17:03.849Z,42.17
2022-09-30T20:20:06.244Z,41.72
2022-09-30T20:22:54.746Z,41.83
2022-09-30T20:25:43.605Z,41.73
2022-09-30T20:28:32.135Z,42.01
2022-09-30T20:31:20.810Z,42.08
2022-09-30T20:34:11.670Z,41.58
2022-09-30T20:37:01.308Z,41.82
2022-09-30T20:39:49.738Z,41.89
2022-09-30T20:42:40.013Z,41.70
2022-09-30T20:45:28.541Z,41.62
2022-09-30T20:48:17.048Z,41.88
2022-09-30T20:51:08.851Z,41.66
2022-09-30T20:53:58.388Z,41.95
2022-09-30T20:57:06.353Z,41.67
2022-09-30T20:59:55.349Z,41.70
2022-09-30T21:02:43.906Z,41.52
2022-09-30T21:05:32.682Z,41.59
2022-09-30T21:08:23.081Z,41.72
2022-09-30T21:11:12.457Z,41.76
2022-09-30T21:14:00.912Z,41.92
2022-09-30T21:16:49.335Z,41.93
2022-09-30T21:19:38.072Z,41.63
2022-09-30T21:22:27.323Z,41.99
2022-09-30T21:25:17.392Z,41.96
2022-09-30T21:28:06.056Z,41.80
2022-09-30T21:30:55.352Z,41.87
2022-09-30T21:33:44.748Z,41.92
2022-09-30T21:36:36.773Z,41.96
2022-09-30T21:39:25.226Z,41.94
2022-09-30T21:42:17.598Z,42.04
2022-09-30T21:45:07.431Z,42.10
2022-09-30T21:48:05.020Z,42.32
2022-09-30T21:50:53.532Z,42.01
2022-09-30T21:53:42.321Z,42.32
2022-09-30T21:56:30.844Z,41.98
2022-09-30T21:59:20.631Z,42.05
2022-09-30T22:02:09.242Z,41.97
2022-09-30T22:04:57.758Z,42.18
2022-09-30T22:07:46.194Z,41.91
2022-09-30T22:10:34.623Z,42.04
2022-09-30T22:13:23.076Z,42.17
2022-09-30T22:16:15.270Z,42.04
2022-09-30T22:19:07.391Z,41.86
2022-09-30T22:21:55.879Z,41.85
2022-09-30T22:24:44.326Z,41.84
2022-09-30T22:27:34.109Z,42.26
2022-09-30T22:30:22.663Z,42.10
2022-09-30T22:33:30.192Z,42.01
2022-09-30T22:36:36.776Z,42.04
2022-09-30T22:39:25.703Z,42.25
2022-09-30T22:42:14.299Z,42.04
2022-09-30T22:45:03.552Z,42.06
2022-09-30T22:47:52.854Z,42.37
2022-09-30T22:50:43.076Z,42.05
2022-09-30T22:53:31.509Z,42.03
2022-09-30T22:56:20.137Z,41.93
2022-09-30T22:59:08.549Z,41.91
2022-09-30T23:01:57.346Z,42.14
2022-09-30T23:04:45.878Z,42.25
2022-09-30T23:07:35.744Z,42.24
2022-09-30T23:10:24.243Z,42.36
2022-09-30T23:13:13.363Z,42.11
2022-09-30T23:16:02.758Z,42.38
2022-09-30T23:18:51.263Z,41.99
2022-09-30T23:21:40.055Z,42.33
2022-09-30T23:24:30.376Z,42.38
2022-09-30T23:27:18.901Z,42.19
2022-09-30T23:30:08.529Z,41.97
2022-09-30T23:32:58.097Z,42.26
2022-09-30T23:35:47.028Z,42.29
2022-09-30T23:38:35.636Z,42.17
2022-09-30T23:41:25.538Z,42.21
2022-09-30T23:44:15.539Z,42.20
2022-09-30T23:47:19.391Z,42.31
2022-09-30T23:50:09.250Z,42.22
2022-09-30T23:52:58.608Z,42.53
2022-09-30T23:55:55.514Z,42.23
2022-09-30T23:58:45.947Z,42.29
